sensor_id;sensor_type;location;lat;lon;timestamp;P1;durP1;ratioP1;P2;durP2;ratioP2
40847;SDS011;26570;50.962;5.340;2022-09-17T00:00:46;6.10;;;0.30;;
40847;SDS011;26570;50.962;5.340;2022-09-17T00:03:32;6.50;;;0.70;;
40847;SDS011;26570;50.962;5.340;2022-09-17T00:06:18;8.30;;;0.40;;
40847;SDS011;26570;50.962;5.340;2022-09-17T00:09:04;8.00;;;0.80;;
40847;SDS011;26570;50.962;5.340;2022-09-17T00:11:52;4.63;;;0.30;;
40847;SDS011;26570;50.962;5.340;2022-09-17T00:14:37;6.47;;;0.40;;
40847;SDS011;26570;50.962;5.340;2022-09-17T00:17:24;7.93;;;0.30;;
40847;SDS011;26570;50.962;5.340;2022-09-17T00:20:09;5.80;;;0.37;;
40847;SDS011;26570;50.962;5.340;2022-09-17T00:22:54;5.13;;;0.37;;
40847;SDS011;26570;50.962;5.340;2022-09-17T00:25:41;6.60;;;1.37;;
40847;SDS011;26570;50.962;5.340;2022-09-17T00:28:28;5.70;;;0.30;;
40847;SDS011;26570;50.962;5.340;2022-09-17T00:31:13;5.67;;;0.40;;
40847;SDS011;26570;50.962;5.340;2022-09-17T00:34:00;8.40;;;0.40;;
40847;SDS011;26570;50.962;5.340;2022-09-17T00:36:47;8.27;;;0.47;;
40847;SDS011;26570;50.962;5.340;2022-09-17T00:39:32;5.37;;;0.40;;
40847;SDS011;26570;50.962;5.340;2022-09-17T00:42:18;14.70;;;0.90;;
40847;SDS011;26570;50.962;5.340;2022-09-17T00:45:03;9.63;;;0.50;;
40847;SDS011;26570;50.962;5.340;2022-09-17T00:48:22;11.53;;;0.40;;
40847;SDS011;26570;50.962;5.340;2022-09-17T00:51:00;5.03;;;0.30;;
40847;SDS011;26570;50.962;5.340;2022-09-17T00:53:47;10.87;;;0.40;;
40847;SDS011;26570;50.962;5.340;2022-09-17T00:56:33;14.03;;;0.53;;
40847;SDS011;26570;50.962;5.340;2022-09-17T00:59:20;9.07;;;0.40;;
40847;SDS011;26570;50.962;5.340;2022-09-17T01:02:06;11.90;;;0.90;;
40847;SDS011;26570;50.962;5.340;2022-09-17T01:04:52;9.77;;;0.63;;
40847;SDS011;26570;50.962;5.340;2022-09-17T01:32:28;6.57;;;0.50;;
40847;SDS011;26570;50.962;5.340;2022-09-17T01:35:47;17.07;;;0.50;;
40847;SDS011;26570;50.962;5.340;2022-09-17T01:38:51;9.20;;;0.50;;
40847;SDS011;26570;50.962;5.340;2022-09-17T01:47:53;7.33;;;0.40;;
40847;SDS011;26570;50.962;5.340;2022-09-17T01:50:57;8.70;;;0.50;;
40847;SDS011;26570;50.962;5.340;2022-09-17T01:57:07;10.00;;;0.60;;
40847;SDS011;26570;50.962;5.340;2022-09-17T02:00:07;7.87;;;0.40;;
40847;SDS011;26570;50.962;5.340;2022-09-17T02:03:06;12.43;;;0.50;;
40847;SDS011;26570;50.962;5.340;2022-09-17T02:06:07;12.73;;;0.50;;
40847;SDS011;26570;50.962;5.340;2022-09-17T02:09:21;11.13;;;0.80;;
40847;SDS011;26570;50.962;5.340;2022-09-17T02:12:11;6.40;;;0.70;;
40847;SDS011;26570;50.962;5.340;2022-09-17T02:15:02;10.20;;;0.70;;
40847;SDS011;26570;50.962;5.340;2022-09-17T02:17:54;8.80;;;0.40;;
40847;SDS011;26570;50.962;5.340;2022-09-17T02:20:49;8.63;;;0.40;;
40847;SDS011;26570;50.962;5.340;2022-09-17T02:23:49;10.37;;;0.50;;
40847;SDS011;26570;50.962;5.340;2022-09-17T02:26:44;9.67;;;0.50;;
40847;SDS011;26570;50.962;5.340;2022-09-17T02:29:48;10.47;;;0.40;;
40847;SDS011;26570;50.962;5.340;2022-09-17T02:32:34;7.83;;;0.50;;
40847;SDS011;26570;50.962;5.340;2022-09-17T02:35:19;13.03;;;1.17;;
40847;SDS011;26570;50.962;5.340;2022-09-17T02:38:04;13.80;;;0.60;;
40847;SDS011;26570;50.962;5.340;2022-09-17T02:40:52;8.53;;;0.57;;
40847;SDS011;26570;50.962;5.340;2022-09-17T02:52:45;9.70;;;0.53;;
40847;SDS011;26570;50.962;5.340;2022-09-17T03:01:52;10.20;;;0.60;;
40847;SDS011;26570;50.962;5.340;2022-09-17T03:04:45;11.23;;;1.10;;
40847;SDS011;26570;50.962;5.340;2022-09-17T03:07:32;16.43;;;0.87;;
40847;SDS011;26570;50.962;5.340;2022-09-17T03:10:18;12.03;;;0.70;;
40847;SDS011;26570;50.962;5.340;2022-09-17T03:13:03;16.93;;;0.80;;
40847;SDS011;26570;50.962;5.340;2022-09-17T03:15:48;6.27;;;0.40;;
40847;SDS011;26570;50.962;5.340;2022-09-17T03:18:34;13.87;;;0.60;;
40847;SDS011;26570;50.962;5.340;2022-09-17T03:21:19;11.80;;;0.50;;
40847;SDS011;26570;50.962;5.340;2022-09-17T03:24:05;12.77;;;0.57;;
40847;SDS011;26570;50.962;5.340;2022-09-17T03:26:51;8.27;;;0.40;;
40847;SDS011;26570;50.962;5.340;2022-09-17T03:29:36;7.10;;;0.50;;
40847;SDS011;26570;50.962;5.340;2022-09-17T03:32:21;11.13;;;1.00;;
40847;SDS011;26570;50.962;5.340;2022-09-17T03:35:06;7.60;;;0.47;;
40847;SDS011;26570;50.962;5.340;2022-09-17T03:37:52;11.80;;;0.40;;
40847;SDS011;26570;50.962;5.340;2022-09-17T03:40:37;12.37;;;0.50;;
40847;SDS011;26570;50.962;5.340;2022-09-17T03:43:23;7.80;;;0.40;;
40847;SDS011;26570;50.962;5.340;2022-09-17T03:46:09;12.93;;;0.87;;
40847;SDS011;26570;50.962;5.340;2022-09-17T03:48:54;10.40;;;0.60;;
40847;SDS011;26570;50.962;5.340;2022-09-17T03:51:40;13.20;;;0.80;;
40847;SDS011;26570;50.962;5.340;2022-09-17T03:54:27;14.47;;;0.60;;
40847;SDS011;26570;50.962;5.340;2022-09-17T03:57:14;12.23;;;0.53;;
40847;SDS011;26570;50.962;5.340;2022-09-17T03:59:59;6.73;;;0.40;;
40847;SDS011;26570;50.962;5.340;2022-09-17T04:02:44;14.93;;;0.50;;
40847;SDS011;26570;50.962;5.340;2022-09-17T04:05:29;7.50;;;0.50;;
40847;SDS011;26570;50.962;5.340;2022-09-17T04:08:15;12.40;;;0.50;;
40847;SDS011;26570;50.962;5.340;2022-09-17T04:11:00;10.23;;;0.50;;
40847;SDS011;26570;50.962;5.340;2022-09-17T04:13:44;14.27;;;0.67;;
40847;SDS011;26570;50.962;5.340;2022-09-17T04:16:30;10.43;;;0.50;;
40847;SDS011;26570;50.962;5.340;2022-09-17T04:19:15;9.37;;;0.80;;
40847;SDS011;26570;50.962;5.340;2022-09-17T04:22:01;10.93;;;0.60;;
40847;SDS011;26570;50.962;5.340;2022-09-17T04:24:48;9.20;;;0.77;;
40847;SDS011;26570;50.962;5.340;2022-09-17T04:27:34;7.83;;;0.50;;
40847;SDS011;26570;50.962;5.340;2022-09-17T04:30:20;15.80;;;0.80;;
40847;SDS011;26570;50.962;5.340;2022-09-17T04:33:06;7.07;;;0.70;;
40847;SDS011;26570;50.962;5.340;2022-09-17T04:35:52;6.33;;;0.50;;
40847;SDS011;26570;50.962;5.340;2022-09-17T04:38:38;10.63;;;0.80;;
40847;SDS011;26570;50.962;5.340;2022-09-17T04:41:23;16.80;;;0.90;;
40847;SDS011;26570;50.962;5.340;2022-09-17T04:44:08;10.57;;;1.17;;
40847;SDS011;26570;50.962;5.340;2022-09-17T04:46:54;7.47;;;1.00;;
40847;SDS011;26570;50.962;5.340;2022-09-17T04:49:39;13.90;;;0.90;;
40847;SDS011;26570;50.962;5.340;2022-09-17T04:52:24;16.60;;;0.77;;
40847;SDS011;26570;50.962;5.340;2022-09-17T04:55:10;14.70;;;0.63;;
40847;SDS011;26570;50.962;5.340;2022-09-17T04:57:55;12.93;;;0.63;;
40847;SDS011;26570;50.962;5.340;2022-09-17T05:00:41;10.63;;;0.80;;
40847;SDS011;26570;50.962;5.340;2022-09-17T05:03:26;12.60;;;0.70;;
40847;SDS011;26570;50.962;5.340;2022-09-17T05:06:11;10.57;;;0.77;;
40847;SDS011;26570;50.962;5.340;2022-09-17T05:08:57;8.50;;;0.60;;
40847;SDS011;26570;50.962;5.340;2022-09-17T05:11:42;12.60;;;0.90;;
40847;SDS011;26570;50.962;5.340;2022-09-17T05:14:27;21.93;;;0.73;;
40847;SDS011;26570;50.962;5.340;2022-09-17T05:17:12;12.70;;;0.90;;
40847;SDS011;26570;50.962;5.340;2022-09-17T05:19:58;10.63;;;0.60;;
40847;SDS011;26570;50.962;5.340;2022-09-17T05:22:43;6.23;;;0.70;;
40847;SDS011;26570;50.962;5.340;2022-09-17T05:25:29;10.93;;;0.70;;
40847;SDS011;26570;50.962;5.340;2022-09-17T05:28:15;12.03;;;1.00;;
40847;SDS011;26570;50.962;5.340;2022-09-17T05:31:01;6.57;;;0.53;;
40847;SDS011;26570;50.962;5.340;2022-09-17T05:33:46;12.70;;;0.57;;
40847;SDS011;26570;50.962;5.340;2022-09-17T05:36:31;8.77;;;0.60;;
40847;SDS011;26570;50.962;5.340;2022-09-17T05:39:17;7.57;;;0.60;;
40847;SDS011;26570;50.962;5.340;2022-09-17T05:42:04;10.63;;;0.60;;
40847;SDS011;26570;50.962;5.340;2022-09-17T05:44:49;8.90;;;0.47;;
40847;SDS011;26570;50.962;5.340;2022-09-17T05:47:35;10.67;;;0.70;;
40847;SDS011;26570;50.962;5.340;2022-09-17T05:50:20;10.00;;;0.60;;
40847;SDS011;26570;50.962;5.340;2022-09-17T05:53:27;11.80;;;0.80;;
40847;SDS011;26570;50.962;5.340;2022-09-17T05:56:12;11.07;;;0.83;;
40847;SDS011;26570;50.962;5.340;2022-09-17T05:59:00;16.10;;;1.27;;
40847;SDS011;26570;50.962;5.340;2022-09-17T06:02:20;12.80;;;0.90;;
40847;SDS011;26570;50.962;5.340;2022-09-17T06:05:05;11.83;;;0.87;;
40847;SDS011;26570;50.962;5.340;2022-09-17T06:07:50;17.33;;;1.10;;
40847;SDS011;26570;50.962;5.340;2022-09-17T06:10:36;15.97;;;1.20;;
40847;SDS011;26570;50.962;5.340;2022-09-17T06:13:21;16.60;;;0.93;;
40847;SDS011;26570;50.962;5.340;2022-09-17T06:16:06;16.33;;;1.23;;
40847;SDS011;26570;50.962;5.340;2022-09-17T06:18:51;30.43;;;1.67;;
40847;SDS011;26570;50.962;5.340;2022-09-17T06:21:47;8.47;;;0.60;;
40847;SDS011;26570;50.962;5.340;2022-09-17T06:24:33;16.03;;;0.80;;
40847;SDS011;26570;50.962;5.340;2022-09-17T06:27:17;19.50;;;1.00;;
40847;SDS011;26570;50.962;5.340;2022-09-17T06:30:02;13.63;;;0.80;;
40847;SDS011;26570;50.962;5.340;2022-09-17T06:32:48;10.97;;;0.67;;
40847;SDS011;26570;50.962;5.340;2022-09-17T06:35:32;12.20;;;0.50;;
40847;SDS011;26570;50.962;5.340;2022-09-17T06:38:17;16.40;;;0.50;;
40847;SDS011;26570;50.962;5.340;2022-09-17T06:41:02;13.73;;;0.87;;
40847;SDS011;26570;50.962;5.340;2022-09-17T06:43:50;10.33;;;1.10;;
40847;SDS011;26570;50.962;5.340;2022-09-17T06:46:37;12.77;;;0.50;;
40847;SDS011;26570;50.962;5.340;2022-09-17T06:49:21;23.43;;;0.63;;
40847;SDS011;26570;50.962;5.340;2022-09-17T06:52:07;13.33;;;0.60;;
40847;SDS011;26570;50.962;5.340;2022-09-17T06:54:51;9.13;;;0.50;;
40847;SDS011;26570;50.962;5.340;2022-09-17T06:57:36;15.10;;;0.60;;
40847;SDS011;26570;50.962;5.340;2022-09-17T07:00:21;13.33;;;0.70;;
40847;SDS011;26570;50.962;5.340;2022-09-17T07:03:05;10.97;;;0.77;;
40847;SDS011;26570;50.962;5.340;2022-09-17T07:05:51;10.40;;;0.40;;
40847;SDS011;26570;50.962;5.340;2022-09-17T07:08:36;9.00;;;0.40;;
40847;SDS011;26570;50.962;5.340;2022-09-17T07:11:22;5.97;;;0.30;;
40847;SDS011;26570;50.962;5.340;2022-09-17T07:14:07;7.07;;;0.30;;
40847;SDS011;26570;50.962;5.340;2022-09-17T07:16:52;5.20;;;0.30;;
40847;SDS011;26570;50.962;5.340;2022-09-17T07:19:37;10.80;;;0.47;;
40847;SDS011;26570;50.962;5.340;2022-09-17T07:22:23;3.07;;;0.30;;
40847;SDS011;26570;50.962;5.340;2022-09-17T07:25:08;5.13;;;0.32;;
40847;SDS011;26570;50.962;5.340;2022-09-17T07:27:54;5.78;;;0.40;;
40847;SDS011;26570;50.962;5.340;2022-09-17T07:30:39;4.60;;;0.30;;
40847;SDS011;26570;50.962;5.340;2022-09-17T07:33:25;4.20;;;0.30;;
40847;SDS011;26570;50.962;5.340;2022-09-17T07:36:11;8.02;;;0.30;;
40847;SDS011;26570;50.962;5.340;2022-09-17T07:38:58;8.70;;;0.30;;
40847;SDS011;26570;50.962;5.340;2022-09-17T07:41:42;5.72;;;0.30;;
40847;SDS011;26570;50.962;5.340;2022-09-17T07:44:27;5.65;;;0.30;;
40847;SDS011;26570;50.962;5.340;2022-09-17T07:47:12;5.38;;;0.30;;
40847;SDS011;26570;50.962;5.340;2022-09-17T07:49:56;5.37;;;0.37;;
40847;SDS011;26570;50.962;5.340;2022-09-17T07:52:45;6.47;;;0.30;;
40847;SDS011;26570;50.962;5.340;2022-09-17T07:55:31;7.17;;;0.30;;
40847;SDS011;26570;50.962;5.340;2022-09-17T07:58:15;3.83;;;0.20;;
40847;SDS011;26570;50.962;5.340;2022-09-17T08:01:04;3.10;;;0.30;;
40847;SDS011;26570;50.962;5.340;2022-09-17T08:03:51;4.07;;;0.23;;
40847;SDS011;26570;50.962;5.340;2022-09-17T08:06:37;6.83;;;0.30;;
40847;SDS011;26570;50.962;5.340;2022-09-17T08:09:23;6.53;;;0.30;;
40847;SDS011;26570;50.962;5.340;2022-09-17T08:12:08;6.03;;;0.30;;
40847;SDS011;26570;50.962;5.340;2022-09-17T08:14:52;4.47;;;0.30;;
40847;SDS011;26570;50.962;5.340;2022-09-17T08:17:38;6.70;;;0.30;;
40847;SDS011;26570;50.962;5.340;2022-09-17T08:20:29;6.77;;;0.23;;
40847;SDS011;26570;50.962;5.340;2022-09-17T08:23:13;9.10;;;0.43;;
40847;SDS011;26570;50.962;5.340;2022-09-17T08:25:58;2.87;;;0.30;;
40847;SDS011;26570;50.962;5.340;2022-09-17T08:28:44;7.87;;;0.40;;
40847;SDS011;26570;50.962;5.340;2022-09-17T08:31:30;6.17;;;0.30;;
40847;SDS011;26570;50.962;5.340;2022-09-17T08:34:16;3.53;;;0.30;;
40847;SDS011;26570;50.962;5.340;2022-09-17T08:37:01;4.43;;;0.50;;
40847;SDS011;26570;50.962;5.340;2022-09-17T08:39:45;3.43;;;0.20;;
40847;SDS011;26570;50.962;5.340;2022-09-17T08:42:38;9.30;;;0.30;;
40847;SDS011;26570;50.962;5.340;2022-09-17T08:45:32;4.60;;;0.23;;
40847;SDS011;26570;50.962;5.340;2022-09-17T08:48:17;5.60;;;0.20;;
40847;SDS011;26570;50.962;5.340;2022-09-17T08:51:06;7.15;;;0.30;;
40847;SDS011;26570;50.962;5.340;2022-09-17T08:57:33;4.60;;;0.32;;
40847;SDS011;26570;50.962;5.340;2022-09-17T09:00:26;4.73;;;0.20;;
40847;SDS011;26570;50.962;5.340;2022-09-17T09:06:21;6.47;;;0.50;;
40847;SDS011;26570;50.962;5.340;2022-09-17T09:09:10;5.40;;;0.30;;
40847;SDS011;26570;50.962;5.340;2022-09-17T09:12:12;6.67;;;0.30;;
40847;SDS011;26570;50.962;5.340;2022-09-17T09:18:18;6.87;;;0.30;;
40847;SDS011;26570;50.962;5.340;2022-09-17T09:21:24;2.83;;;0.30;;
40847;SDS011;26570;50.962;5.340;2022-09-17T09:24:19;5.73;;;0.27;;
40847;SDS011;26570;50.962;5.340;2022-09-17T09:30:07;1.87;;;0.13;;
40847;SDS011;26570;50.962;5.340;2022-09-17T09:35:45;4.80;;;0.30;;
40847;SDS011;26570;50.962;5.340;2022-09-17T09:38:39;4.70;;;0.23;;
40847;SDS011;26570;50.962;5.340;2022-09-17T09:41:35;7.20;;;0.27;;
40847;SDS011;26570;50.962;5.340;2022-09-17T09:44:31;3.33;;;0.20;;
40847;SDS011;26570;50.962;5.340;2022-09-17T09:53:47;4.77;;;0.30;;
40847;SDS011;26570;50.962;5.340;2022-09-17T09:56:50;3.47;;;0.20;;
40847;SDS011;26570;50.962;5.340;2022-09-17T09:59:41;4.40;;;0.30;;
40847;SDS011;26570;50.962;5.340;2022-09-17T10:02:26;7.87;;;0.30;;
40847;SDS011;26570;50.962;5.340;2022-09-17T10:05:11;5.60;;;0.23;;
40847;SDS011;26570;50.962;5.340;2022-09-17T10:07:56;2.07;;;0.17;;
40847;SDS011;26570;50.962;5.340;2022-09-17T10:13:45;3.30;;;0.20;;
40847;SDS011;26570;50.962;5.340;2022-09-17T10:16:29;4.53;;;0.23;;
40847;SDS011;26570;50.962;5.340;2022-09-17T10:19:19;2.50;;;0.20;;
40847;SDS011;26570;50.962;5.340;2022-09-17T10:25:30;4.20;;;0.20;;
40847;SDS011;26570;50.962;5.340;2022-09-17T10:31:16;3.50;;;0.20;;
40847;SDS011;26570;50.962;5.340;2022-09-17T10:34:02;4.10;;;0.30;;
40847;SDS011;26570;50.962;5.340;2022-09-17T10:36:47;2.93;;;0.10;;
40847;SDS011;26570;50.962;5.340;2022-09-17T10:39:36;2.33;;;0.10;;
40847;SDS011;26570;50.962;5.340;2022-09-17T10:42:29;4.13;;;0.10;;
40847;SDS011;26570;50.962;5.340;2022-09-17T10:45:24;2.67;;;0.20;;
40847;SDS011;26570;50.962;5.340;2022-09-17T10:48:16;2.77;;;0.20;;
40847;SDS011;26570;50.962;5.340;2022-09-17T10:51:03;4.33;;;0.30;;
40847;SDS011;26570;50.962;5.340;2022-09-17T10:54:01;2.13;;;0.23;;
40847;SDS011;26570;50.962;5.340;2022-09-17T10:56:53;3.53;;;0.30;;
40847;SDS011;26570;50.962;5.340;2022-09-17T11:11:50;3.67;;;0.30;;
40847;SDS011;26570;50.962;5.340;2022-09-17T11:27:13;1.50;;;0.10;;
40847;SDS011;26570;50.962;5.340;2022-09-17T11:30:18;1.33;;;0.07;;
40847;SDS011;26570;50.962;5.340;2022-09-17T11:36:20;2.40;;;0.10;;
40847;SDS011;26570;50.962;5.340;2022-09-17T11:39:13;3.30;;;0.10;;
40847;SDS011;26570;50.962;5.340;2022-09-17T11:42:05;0.70;;;0.08;;
40847;SDS011;26570;50.962;5.340;2022-09-17T11:44:57;2.73;;;0.10;;
40847;SDS011;26570;50.962;5.340;2022-09-17T11:47:50;1.73;;;0.10;;
40847;SDS011;26570;50.962;5.340;2022-09-17T11:50:42;2.17;;;0.10;;
40847;SDS011;26570;50.962;5.340;2022-09-17T11:53:42;1.03;;;0.13;;
40847;SDS011;26570;50.962;5.340;2022-09-17T11:56:35;2.23;;;0.20;;
40847;SDS011;26570;50.962;5.340;2022-09-17T11:59:29;2.13;;;0.10;;
40847;SDS011;26570;50.962;5.340;2022-09-17T12:02:46;2.07;;;0.10;;
40847;SDS011;26570;50.962;5.340;2022-09-17T12:05:53;3.35;;;0.10;;
40847;SDS011;26570;50.962;5.340;2022-09-17T12:11:39;1.60;;;0.10;;
40847;SDS011;26570;50.962;5.340;2022-09-17T12:17:35;1.70;;;0.10;;
40847;SDS011;26570;50.962;5.340;2022-09-17T12:20:26;2.65;;;0.10;;
40847;SDS011;26570;50.962;5.340;2022-09-17T12:23:17;2.10;;;0.07;;
40847;SDS011;26570;50.962;5.340;2022-09-17T12:35:32;5.67;;;0.10;;
40847;SDS011;26570;50.962;5.340;2022-09-17T12:45:03;2.07;;;0.03;;
40847;SDS011;26570;50.962;5.340;2022-09-17T12:51:20;0.60;;;0.10;;
40847;SDS011;26570;50.962;5.340;2022-09-17T13:00:11;2.67;;;0.10;;
40847;SDS011;26570;50.962;5.340;2022-09-17T13:03:13;4.03;;;0.20;;
40847;SDS011;26570;50.962;5.340;2022-09-17T13:06:14;2.47;;;0.10;;
40847;SDS011;26570;50.962;5.340;2022-09-17T13:09:45;3.20;;;0.13;;
40847;SDS011;26570;50.962;5.340;2022-09-17T13:12:58;1.87;;;0.10;;
40847;SDS011;26570;50.962;5.340;2022-09-17T13:21:59;5.13;;;0.10;;
40847;SDS011;26570;50.962;5.340;2022-09-17T13:24:47;3.27;;;0.20;;
40847;SDS011;26570;50.962;5.340;2022-09-17T13:28:02;2.30;;;0.10;;
40847;SDS011;26570;50.962;5.340;2022-09-17T13:36:42;2.77;;;0.17;;
40847;SDS011;26570;50.962;5.340;2022-09-17T13:42:42;2.93;;;0.20;;
40847;SDS011;26570;50.962;5.340;2022-09-17T13:45:29;2.40;;;0.10;;
40847;SDS011;26570;50.962;5.340;2022-09-17T13:48:18;5.03;;;0.20;;
40847;SDS011;26570;50.962;5.340;2022-09-17T13:54:15;8.73;;;0.37;;
40847;SDS011;26570;50.962;5.340;2022-09-17T13:57:22;2.67;;;0.30;;
40847;SDS011;26570;50.962;5.340;2022-09-17T14:00:29;2.90;;;0.30;;
40847;SDS011;26570;50.962;5.340;2022-09-17T14:09:26;5.40;;;0.20;;
40847;SDS011;26570;50.962;5.340;2022-09-17T14:12:47;5.47;;;0.20;;
40847;SDS011;26570;50.962;5.340;2022-09-17T14:21:12;4.32;;;0.20;;
40847;SDS011;26570;50.962;5.340;2022-09-17T14:24:12;7.43;;;0.20;;
40847;SDS011;26570;50.962;5.340;2022-09-17T14:30:14;6.37;;;0.20;;
40847;SDS011;26570;50.962;5.340;2022-09-17T14:36:08;9.80;;;0.40;;
40847;SDS011;26570;50.962;5.340;2022-09-17T14:38:55;5.18;;;0.30;;
40847;SDS011;26570;50.962;5.340;2022-09-17T14:41:40;5.93;;;0.30;;
40847;SDS011;26570;50.962;5.340;2022-09-17T14:44:27;7.90;;;0.30;;
40847;SDS011;26570;50.962;5.340;2022-09-17T14:47:17;4.10;;;0.20;;
40847;SDS011;26570;50.962;5.340;2022-09-17T14:53:13;6.65;;;0.30;;
40847;SDS011;26570;50.962;5.340;2022-09-17T14:56:00;9.00;;;0.30;;
40847;SDS011;26570;50.962;5.340;2022-09-17T14:58:46;6.90;;;0.30;;
40847;SDS011;26570;50.962;5.340;2022-09-17T15:01:34;2.67;;;0.53;;
40847;SDS011;26570;50.962;5.340;2022-09-17T15:04:21;4.83;;;0.20;;
40847;SDS011;26570;50.962;5.340;2022-09-17T15:07:10;4.00;;;0.20;;
40847;SDS011;26570;50.962;5.340;2022-09-17T15:10:11;2.43;;;0.20;;
40847;SDS011;26570;50.962;5.340;2022-09-17T15:12:58;7.47;;;0.63;;
40847;SDS011;26570;50.962;5.340;2022-09-17T15:15:50;4.20;;;0.20;;
40847;SDS011;26570;50.962;5.340;2022-09-17T15:18:54;3.70;;;0.20;;
40847;SDS011;26570;50.962;5.340;2022-09-17T15:21:44;5.43;;;0.20;;
40847;SDS011;26570;50.962;5.340;2022-09-17T15:24:36;5.37;;;0.20;;
40847;SDS011;26570;50.962;5.340;2022-09-17T15:27:46;7.00;;;0.30;;
40847;SDS011;26570;50.962;5.340;2022-09-17T15:30:30;5.37;;;0.30;;
40847;SDS011;26570;50.962;5.340;2022-09-17T15:33:16;2.47;;;0.20;;
40847;SDS011;26570;50.962;5.340;2022-09-17T15:36:13;6.07;;;0.20;;
40847;SDS011;26570;50.962;5.340;2022-09-17T15:39:04;5.50;;;0.20;;
40847;SDS011;26570;50.962;5.340;2022-09-17T15:42:22;4.90;;;0.40;;
40847;SDS011;26570;50.962;5.340;2022-09-17T15:45:18;5.43;;;0.43;;
40847;SDS011;26570;50.962;5.340;2022-09-17T15:48:43;6.93;;;0.20;;
40847;SDS011;26570;50.962;5.340;2022-09-17T15:54:24;9.90;;;0.40;;
40847;SDS011;26570;50.962;5.340;2022-09-17T15:57:13;4.77;;;0.30;;
40847;SDS011;26570;50.962;5.340;2022-09-17T16:00:12;8.23;;;0.40;;
40847;SDS011;26570;50.962;5.340;2022-09-17T16:02:57;5.90;;;0.30;;
40847;SDS011;26570;50.962;5.340;2022-09-17T16:09:01;8.83;;;0.30;;
40847;SDS011;26570;50.962;5.340;2022-09-17T16:11:46;5.73;;;0.30;;
40847;SDS011;26570;50.962;5.340;2022-09-17T16:14:31;6.60;;;0.20;;
40847;SDS011;26570;50.962;5.340;2022-09-17T16:17:20;5.03;;;0.30;;
40847;SDS011;26570;50.962;5.340;2022-09-17T16:20:12;5.03;;;0.20;;
40847;SDS011;26570;50.962;5.340;2022-09-17T16:23:06;6.13;;;0.30;;
40847;SDS011;26570;50.962;5.340;2022-09-17T16:25:50;4.73;;;0.40;;
40847;SDS011;26570;50.962;5.340;2022-09-17T16:28:35;6.83;;;0.30;;
40847;SDS011;26570;50.962;5.340;2022-09-17T16:31:20;6.57;;;0.40;;
40847;SDS011;26570;50.962;5.340;2022-09-17T16:34:06;6.40;;;0.20;;
40847;SDS011;26570;50.962;5.340;2022-09-17T16:36:50;9.57;;;0.67;;
40847;SDS011;26570;50.962;5.340;2022-09-17T16:39:35;8.97;;;0.40;;
40847;SDS011;26570;50.962;5.340;2022-09-17T16:42:20;5.33;;;0.20;;
40847;SDS011;26570;50.962;5.340;2022-09-17T16:45:06;6.30;;;0.37;;
40847;SDS011;26570;50.962;5.340;2022-09-17T16:47:52;7.23;;;0.30;;
40847;SDS011;26570;50.962;5.340;2022-09-17T16:50:38;5.33;;;0.30;;
40847;SDS011;26570;50.962;5.340;2022-09-17T16:53:24;5.40;;;0.30;;
40847;SDS011;26570;50.962;5.340;2022-09-17T16:56:10;6.73;;;0.30;;
40847;SDS011;26570;50.962;5.340;2022-09-17T16:58:56;9.07;;;0.30;;
40847;SDS011;26570;50.962;5.340;2022-09-17T17:01:40;4.37;;;0.30;;
40847;SDS011;26570;50.962;5.340;2022-09-17T17:04:26;5.03;;;0.60;;
40847;SDS011;26570;50.962;5.340;2022-09-17T17:07:11;4.93;;;0.37;;
40847;SDS011;26570;50.962;5.340;2022-09-17T17:09:55;8.50;;;0.33;;
40847;SDS011;26570;50.962;5.340;2022-09-17T17:12:42;6.10;;;0.30;;
40847;SDS011;26570;50.962;5.340;2022-09-17T17:15:27;5.83;;;0.30;;
40847;SDS011;26570;50.962;5.340;2022-09-17T17:18:11;7.37;;;0.30;;
40847;SDS011;26570;50.962;5.340;2022-09-17T17:21:02;8.97;;;0.47;;
40847;SDS011;26570;50.962;5.340;2022-09-17T17:23:48;10.50;;;0.30;;
40847;SDS011;26570;50.962;5.340;2022-09-17T17:26:33;10.43;;;0.33;;
40847;SDS011;26570;50.962;5.340;2022-09-17T17:29:17;5.80;;;0.40;;
40847;SDS011;26570;50.962;5.340;2022-09-17T17:32:03;5.70;;;0.37;;
40847;SDS011;26570;50.962;5.340;2022-09-17T17:34:48;8.67;;;0.20;;
40847;SDS011;26570;50.962;5.340;2022-09-17T17:37:35;5.13;;;0.30;;
40847;SDS011;26570;50.962;5.340;2022-09-17T17:40:20;7.53;;;0.40;;
40847;SDS011;26570;50.962;5.340;2022-09-17T17:43:05;10.30;;;0.50;;
40847;SDS011;26570;50.962;5.340;2022-09-17T17:45:50;8.53;;;0.30;;
40847;SDS011;26570;50.962;5.340;2022-09-17T17:48:35;6.07;;;0.30;;
40847;SDS011;26570;50.962;5.340;2022-09-17T17:51:21;8.93;;;0.30;;
40847;SDS011;26570;50.962;5.340;2022-09-17T17:54:06;7.93;;;0.30;;
40847;SDS011;26570;50.962;5.340;2022-09-17T17:56:51;8.83;;;0.80;;
40847;SDS011;26570;50.962;5.340;2022-09-17T17:59:37;8.00;;;0.30;;
40847;SDS011;26570;50.962;5.340;2022-09-17T18:02:21;15.73;;;0.70;;
40847;SDS011;26570;50.962;5.340;2022-09-17T18:05:06;7.57;;;0.50;;
40847;SDS011;26570;50.962;5.340;2022-09-17T18:08:00;8.73;;;0.63;;
40847;SDS011;26570;50.962;5.340;2022-09-17T18:10:50;8.20;;;0.40;;
40847;SDS011;26570;50.962;5.340;2022-09-17T18:13:39;8.97;;;0.50;;
40847;SDS011;26570;50.962;5.340;2022-09-17T18:16:25;8.20;;;0.30;;
40847;SDS011;26570;50.962;5.340;2022-09-17T18:19:11;8.43;;;0.30;;
40847;SDS011;26570;50.962;5.340;2022-09-17T18:21:56;5.90;;;0.30;;
40847;SDS011;26570;50.962;5.340;2022-09-17T18:24:42;5.37;;;0.60;;
40847;SDS011;26570;50.962;5.340;2022-09-17T18:27:27;8.30;;;0.40;;
40847;SDS011;26570;50.962;5.340;2022-09-17T18:30:14;6.43;;;0.30;;
40847;SDS011;26570;50.962;5.340;2022-09-17T18:32:59;5.87;;;0.40;;
40847;SDS011;26570;50.962;5.340;2022-09-17T18:35:46;10.23;;;1.03;;
40847;SDS011;26570;50.962;5.340;2022-09-17T18:38:31;6.77;;;0.50;;
40847;SDS011;26570;50.962;5.340;2022-09-17T18:41:19;11.97;;;0.60;;
40847;SDS011;26570;50.962;5.340;2022-09-17T18:44:04;6.73;;;0.40;;
40847;SDS011;26570;50.962;5.340;2022-09-17T18:46:54;4.67;;;0.30;;
40847;SDS011;26570;50.962;5.340;2022-09-17T18:49:40;7.90;;;0.30;;
40847;SDS011;26570;50.962;5.340;2022-09-17T18:52:27;6.87;;;0.27;;
40847;SDS011;26570;50.962;5.340;2022-09-17T18:55:13;6.90;;;0.30;;
40847;SDS011;26570;50.962;5.340;2022-09-17T18:57:58;5.57;;;0.30;;
40847;SDS011;26570;50.962;5.340;2022-09-17T19:00:44;5.67;;;0.40;;
40847;SDS011;26570;50.962;5.340;2022-09-17T19:03:30;9.37;;;0.30;;
40847;SDS011;26570;50.962;5.340;2022-09-17T19:06:16;7.00;;;0.50;;
40847;SDS011;26570;50.962;5.340;2022-09-17T19:09:02;6.93;;;0.87;;
40847;SDS011;26570;50.962;5.340;2022-09-17T19:11:49;5.23;;;0.50;;
40847;SDS011;26570;50.962;5.340;2022-09-17T19:14:35;8.97;;;0.40;;
40847;SDS011;26570;50.962;5.340;2022-09-17T19:17:21;12.23;;;1.00;;
40847;SDS011;26570;50.962;5.340;2022-09-17T19:20:06;7.63;;;0.60;;
40847;SDS011;26570;50.962;5.340;2022-09-17T19:22:52;10.50;;;0.60;;
40847;SDS011;26570;50.962;5.340;2022-09-17T19:25:38;7.93;;;0.40;;
40847;SDS011;26570;50.962;5.340;2022-09-17T19:28:24;6.97;;;0.50;;
40847;SDS011;26570;50.962;5.340;2022-09-17T19:31:10;8.70;;;0.50;;
40847;SDS011;26570;50.962;5.340;2022-09-17T19:33:57;8.20;;;0.60;;
40847;SDS011;26570;50.962;5.340;2022-09-17T19:36:43;15.20;;;0.60;;
40847;SDS011;26570;50.962;5.340;2022-09-17T19:39:29;11.10;;;0.40;;
40847;SDS011;26570;50.962;5.340;2022-09-17T19:42:15;7.37;;;0.33;;
40847;SDS011;26570;50.962;5.340;2022-09-17T19:45:01;6.83;;;0.47;;
40847;SDS011;26570;50.962;5.340;2022-09-17T19:47:47;4.20;;;0.30;;
40847;SDS011;26570;50.962;5.340;2022-09-17T19:50:34;7.77;;;0.30;;
40847;SDS011;26570;50.962;5.340;2022-09-17T19:53:19;8.43;;;0.30;;
40847;SDS011;26570;50.962;5.340;2022-09-17T19:56:06;8.50;;;0.40;;
40847;SDS011;26570;50.962;5.340;2022-09-17T19:58:54;3.73;;;0.40;;